createdAt,value
2018-03-17T00:02:26.679Z,4.05
2018-03-17T00:04:55.152Z,4.11
2018-03-17T00:07:23.531Z,4.17
2018-03-17T00:09:51.855Z,4.25
2018-03-17T00:12:20.175Z,4.24
2018-03-17T00:14:48.482Z,4.28
2018-03-17T00:17:16.810Z,4.03
2018-03-17T00:19:45.212Z,4.20
2018-03-17T00:22:13.612Z,4.47
2018-03-17T00:24:41.963Z,4.53
2018-03-17T00:27:10.346Z,4.36
2018-03-17T00:29:38.723Z,3.87
2018-03-17T00:32:07.050Z,3.97
2018-03-17T00:34:35.366Z,4.03
2018-03-17T00:37:03.723Z,3.73
2018-03-17T00:39:32.046Z,3.79
2018-03-17T00:42:00.374Z,3.84
2018-03-17T00:44:28.703Z,3.61
2018-03-17T00:46:57.068Z,3.62
2018-03-17T00:49:25.392Z,3.48
2018-03-17T00:51:53.695Z,3.60
2018-03-17T00:54:22.018Z,3.68
2018-03-17T00:56:50.342Z,3.71
2018-03-17T00:59:18.758Z,3.93
2018-03-17T01:01:47.137Z,3.63
2018-03-17T01:04:15.522Z,3.46
2018-03-17T01:06:43.894Z,3.46
2018-03-17T01:09:12.210Z,3.75
2018-03-17T01:11:40.544Z,4.01
2018-03-17T01:14:08.856Z,3.93
2018-03-17T01:16:37.183Z,3.92
2018-03-17T01:19:05.503Z,4.01
2018-03-17T01:21:33.818Z,4.09
2018-03-17T01:24:02.239Z,4.02
2018-03-17T01:26:30.542Z,3.75
2018-03-17T01:28:58.866Z,3.59
2018-03-17T01:31:27.178Z,3.65
2018-03-17T01:33:55.490Z,3.72
2018-03-17T01:36:23.816Z,3.74
2018-03-17T01:38:52.186Z,3.51
2018-03-17T01:41:20.584Z,3.52
2018-03-17T01:43:48.942Z,3.44
2018-03-17T01:46:17.258Z,3.48
2018-03-17T01:48:45.595Z,3.27
2018-03-17T01:51:13.885Z,3.50
2018-03-17T01:53:42.215Z,3.52
2018-03-17T01:56:10.532Z,3.65
2018-03-17T01:58:38.919Z,3.86
2018-03-17T02:01:07.211Z,3.84
2018-03-17T02:03:35.575Z,3.73
2018-03-17T02:06:03.890Z,3.65
2018-03-17T02:08:32.215Z,3.52
2018-03-17T02:11:00.591Z,3.62
2018-03-17T02:13:28.971Z,3.56
2018-03-17T02:15:57.302Z,3.63
2018-03-17T02:18:25.622Z,3.77
2018-03-17T02:20:53.994Z,3.74
2018-03-17T02:23:22.390Z,3.63
2018-03-17T02:25:50.764Z,3.31
2018-03-17T02:28:19.085Z,3.29
2018-03-17T02:30:47.516Z,3.34
2018-03-17T02:33:15.895Z,3.39
2018-03-17T02:35:44.232Z,3.38
2018-03-17T02:38:12.554Z,3.51
2018-03-17T02:40:41.770Z,3.72
2018-03-17T02:43:10.092Z,3.59
2018-03-17T02:45:38.505Z,3.39
2018-03-17T02:48:06.896Z,3.22
2018-03-17T02:50:35.228Z,3.29
2018-03-17T02:53:03.567Z,3.40
2018-03-17T02:55:31.895Z,3.56
2018-03-17T02:58:01.197Z,3.53
2018-03-17T03:00:29.599Z,3.38
2018-03-17T03:02:58.087Z,3.51
2018-03-17T03:05:27.360Z,3.42
2018-03-17T03:07:55.871Z,3.33
2018-03-17T03:10:24.183Z,3.19
2018-03-17T03:12:52.523Z,3.25
2018-03-17T03:15:20.896Z,3.26
2018-03-17T03:17:49.226Z,3.31
2018-03-17T03:20:17.625Z,3.53
2018-03-17T03:22:46.018Z,3.58
2018-03-17T03:25:14.404Z,3.61
2018-03-17T03:27:42.730Z,3.42
2018-03-17T03:30:11.045Z,3.30
2018-03-17T03:32:39.381Z,3.41
2018-03-17T03:35:07.735Z,3.57
2018-03-17T03:37:36.035Z,3.66
2018-03-17T03:40:04.356Z,3.71
2018-03-17T03:42:32.708Z,3.52
2018-03-17T03:45:01.015Z,3.20
2018-03-17T03:47:29.367Z,3.30
2018-03-17T03:49:57.678Z,3.36
2018-03-17T03:52:26.057Z,3.36
2018-03-17T03:54:54.429Z,3.22
2018-03-17T03:57:22.778Z,3.20
2018-03-17T03:59:51.083Z,3.33
2018-03-17T04:02:19.463Z,3.62
2018-03-17T04:04:47.797Z,3.64
2018-03-17T04:07:16.118Z,3.66
2018-03-17T04:09:44.500Z,3.63
2018-03-17T04:12:12.880Z,3.50
2018-03-17T04:14:41.262Z,3.37
2018-03-17T04:17:09.603Z,3.31
2018-03-17T04:19:37.942Z,3.22
2018-03-17T04:22:06.258Z,3.26
2018-03-17T04:24:34.590Z,3.46
2018-03-17T04:27:02.950Z,3.42
2018-03-17T04:29:31.279Z,3.48
2018-03-17T04:31:59.586Z,3.58
2018-03-17T04:34:27.910Z,3.43
2018-03-17T04:36:57.285Z,3.43
2018-03-17T04:39:25.614Z,3.21
2018-03-17T04:41:53.931Z,3.14
2018-03-17T04:44:22.251Z,2.97
2018-03-17T04:46:50.598Z,3.02
2018-03-17T04:49:18.922Z,3.06
2018-03-17T04:51:47.293Z,3.03
2018-03-17T04:54:15.606Z,3.05
2018-03-17T04:56:43.922Z,3.03
2018-03-17T04:59:12.269Z,2.83
2018-03-17T05:01:40.658Z,2.53
2018-03-17T05:04:08.987Z,2.58
2018-03-17T05:06:37.314Z,2.74
2018-03-17T05:09:05.653Z,2.89
2018-03-17T05:11:33.975Z,3.15
2018-03-17T05:14:02.334Z,3.19
2018-03-17T05:16:30.712Z,3.23
2018-03-17T05:18:59.091Z,3.01
2018-03-17T05:21:27.470Z,2.99
2018-03-17T05:23:55.799Z,2.59
2018-03-17T05:26:24.129Z,2.36
2018-03-17T05:28:52.451Z,2.57
2018-03-17T05:31:20.894Z,2.75
2018-03-17T05:33:49.264Z,2.75
2018-03-17T05:36:17.582Z,2.62
2018-03-17T05:38:45.901Z,2.84
2018-03-17T05:41:14.294Z,2.92
2018-03-17T05:43:42.603Z,2.86
2018-03-17T05:46:10.930Z,2.86
2018-03-17T05:48:39.246Z,3.00
2018-03-17T05:51:07.700Z,2.83
2018-03-17T05:53:36.008Z,2.90
2018-03-17T05:56:04.362Z,2.80
2018-03-17T05:58:32.715Z,2.84
2018-03-17T06:01:01.864Z,3.01
2018-03-17T06:03:30.218Z,3.07
2018-03-17T06:05:58.535Z,3.08
2018-03-17T06:08:26.967Z,3.45
2018-03-17T06:10:55.279Z,3.46
2018-03-17T06:13:23.610Z,3.22
2018-03-17T06:16:03.875Z,3.17
2018-03-17T06:18:32.218Z,3.42
2018-03-17T06:21:00.538Z,3.45
2018-03-17T06:23:28.880Z,3.31
2018-03-17T06:25:57.214Z,3.31
2018-03-17T06:28:25.560Z,3.38
2018-03-17T06:30:53.884Z,3.52
2018-03-17T06:33:22.223Z,3.64
2018-03-17T06:35:50.563Z,3.56
2018-03-17T06:38:18.971Z,3.61
2018-03-17T06:40:47.385Z,3.64
2018-03-17T06:43:15.703Z,3.56
2018-03-17T06:45:44.044Z,3.58
2018-03-17T06:48:12.383Z,3.59
2018-03-17T06:50:40.712Z,3.63
2018-03-17T06:53:09.027Z,3.68
2018-03-17T06:55:37.414Z,3.83
2018-03-17T06:58:05.810Z,3.89
2018-03-17T07:00:34.156Z,4.15
2018-03-17T07:03:02.550Z,4.33
2018-03-17T07:05:30.903Z,4.41
2018-03-17T07:08:00.202Z,4.52
2018-03-17T07:10:28.607Z,4.33
2018-03-17T07:12:56.942Z,4.32
2018-03-17T07:15:25.371Z,4.15
2018-03-17T07:17:53.704Z,4.03
2018-03-17T07:20:22.044Z,4.14
2018-03-17T07:22:50.425Z,4.14
2018-03-17T07:25:18.814Z,4.21
2018-03-17T07:27:47.083Z,4.25
2018-03-17T07:30:15.423Z,4.38
2018-03-17T07:32:43.751Z,4.35
2018-03-17T07:35:12.083Z,4.46
2018-03-17T07:37:40.411Z,4.58
2018-03-17T07:40:08.751Z,4.63
2018-03-17T07:42:37.083Z,4.84
2018-03-17T07:45:05.426Z,5.00
2018-03-17T07:47:33.738Z,4.93
2018-03-17T07:50:02.154Z,5.04
2018-03-17T07:52:30.500Z,5.24
2018-03-17T07:54:59.824Z,5.46
2018-03-17T07:57:28.137Z,5.35
2018-03-17T07:59:56.489Z,5.45
2018-03-17T08:02:24.904Z,5.18
2018-03-17T08:04:53.251Z,5.39
2018-03-17T08:07:21.728Z,5.33
2018-03-17T08:09:50.058Z,5.55
2018-03-17T08:12:18.500Z,5.28
2018-03-17T08:14:46.913Z,5.34
2018-03-17T08:17:15.251Z,5.37
2018-03-17T08:19:43.570Z,5.20
2018-03-17T08:22:11.915Z,5.11
2018-03-17T08:24:40.231Z,5.04
2018-03-17T08:27:08.652Z,5.12
2018-03-17T08:29:36.979Z,5.07
2018-03-17T08:32:05.308Z,5.10
2018-03-17T08:34:33.634Z,4.80
2018-03-17T08:37:02.062Z,5.01
2018-03-17T08:39:30.407Z,5.02
2018-03-17T08:41:58.745Z,5.09
2018-03-17T08:44:27.054Z,5.20
2018-03-17T08:46:55.482Z,5.18
2018-03-17T08:49:23.800Z,5.17
2018-03-17T08:51:52.135Z,5.21
2018-03-17T08:54:20.507Z,5.22
2018-03-17T08:56:48.863Z,5.15
2018-03-17T08:59:17.367Z,4.98
2018-03-17T09:01:45.699Z,5.01
2018-03-17T09:04:14.021Z,5.16
2018-03-17T09:06:42.407Z,5.15
2018-03-17T09:09:10.795Z,5.17
2018-03-17T09:11:39.131Z,5.14
2018-03-17T09:14:07.561Z,5.14
2018-03-17T09:16:35.895Z,5.34
2018-03-17T09:19:04.298Z,5.18
2018-03-17T09:21:32.642Z,5.18
2018-03-17T09:24:00.980Z,5.25
2018-03-17T09:26:29.294Z,5.30
2018-03-17T09:28:57.624Z,5.44
2018-03-17T09:31:25.960Z,5.46
2018-03-17T09:33:54.287Z,5.41
2018-03-17T09:36:22.608Z,5.51
2018-03-17T09:38:50.976Z,5.51
2018-03-17T09:41:19.315Z,5.60
2018-03-17T09:43:47.659Z,5.86
2018-03-17T09:46:16.039Z,5.99
2018-03-17T09:48:44.434Z,5.90
2018-03-17T09:51:12.798Z,6.04
2018-03-17T09:53:41.174Z,5.88
2018-03-17T09:56:09.495Z,5.44
2018-03-17T09:58:37.906Z,5.39
2018-03-17T10:01:06.218Z,5.45
2018-03-17T10:03:34.617Z,5.58
2018-03-17T10:06:02.957Z,5.50
2018-03-17T10:08:31.298Z,5.44
2018-03-17T10:10:59.617Z,5.49
2018-03-17T10:13:28.004Z,5.60
2018-03-17T10:15:57.336Z,5.58
2018-03-17T10:18:25.686Z,5.57
2018-03-17T10:20:54.052Z,5.33
2018-03-17T10:23:22.398Z,5.31
2018-03-17T10:25:50.732Z,5.36
2018-03-17T10:28:19.082Z,5.39
2018-03-17T10:30:47.407Z,5.56
2018-03-17T10:33:15.842Z,5.33
2018-03-17T10:35:44.225Z,5.35
2018-03-17T10:38:12.589Z,5.44
2018-03-17T10:40:40.917Z,5.44
2018-03-17T10:43:09.248Z,5.42
2018-03-17T10:45:37.590Z,5.41
2018-03-17T10:48:05.929Z,5.16
2018-03-17T10:50:34.286Z,5.16
2018-03-17T10:53:02.629Z,5.08
2018-03-17T10:55:31.046Z,5.04
2018-03-17T10:57:59.379Z,5.10
2018-03-17T11:00:27.724Z,4.98
2018-03-17T11:02:56.039Z,4.85
2018-03-17T11:05:24.715Z,4.91
2018-03-17T11:07:53.035Z,4.82
2018-03-17T11:10:21.458Z,4.94
2018-03-17T11:12:49.830Z,4.79
2018-03-17T11:15:18.155Z,4.71
2018-03-17T11:17:46.510Z,4.59
2018-03-17T11:20:14.842Z,4.73
2018-03-17T11:22:43.168Z,4.70
2018-03-17T11:25:11.502Z,4.67
2018-03-17T11:27:39.817Z,4.63
2018-03-17T11:30:08.256Z,4.73
2018-03-17T11:32:36.622Z,4.70
2018-03-17T11:35:04.983Z,4.63
2018-03-17T11:37:33.311Z,4.63
2018-03-17T11:40:01.637Z,4.68
2018-03-17T11:42:29.985Z,4.49
2018-03-17T11:44:58.403Z,4.58
2018-03-17T11:47:26.726Z,4.46
2018-03-17T11:49:55.054Z,4.57
2018-03-17T11:52:23.400Z,4.51
2018-03-17T11:54:51.758Z,4.56
2018-03-17T11:57:20.096Z,4.60
2018-03-17T11:59:48.425Z,4.56
2018-03-17T12:02:16.748Z,4.59
2018-03-17T12:04:45.102Z,4.58
2018-03-17T12:07:13.448Z,4.67
2018-03-17T12:09:41.816Z,4.80
2018-03-17T12:12:10.195Z,4.74
2018-03-17T12:14:38.531Z,4.83
2018-03-17T12:17:07.643Z,4.83
2018-03-17T12:19:35.959Z,4.86
2018-03-17T12:22:04.391Z,4.72
2018-03-17T12:24:32.771Z,4.68
2018-03-17T12:27:01.171Z,4.81
2018-03-17T12:29:29.532Z,4.73
2018-03-17T12:31:57.907Z,4.63
2018-03-17T12:34:26.239Z,4.55
2018-03-17T12:36:54.687Z,4.52
2018-03-17T12:39:23.001Z,4.56
2018-03-17T12:41:51.421Z,4.61
2018-03-17T12:44:19.757Z,4.60
2018-03-17T12:46:48.165Z,4.54
2018-03-17T12:49:16.550Z,4.42
2018-03-17T12:51:44.940Z,4.34
2018-03-17T12:54:13.300Z,4.33
2018-03-17T12:56:41.640Z,4.27
2018-03-17T12:59:11.055Z,4.32
2018-03-17T13:01:39.395Z,4.34
2018-03-17T13:04:07.867Z,4.23
2018-03-17T13:06:36.204Z,4.17
2018-03-17T13:09:04.570Z,4.30
2018-03-17T13:11:33.563Z,4.22
2018-03-17T13:14:01.884Z,4.23
2018-03-17T13:16:30.206Z,4.17
2018-03-17T13:18:58.558Z,4.21
2018-03-17T13:21:26.873Z,4.33
2018-03-17T13:23:55.218Z,4.27
2018-03-17T13:26:23.544Z,4.24
2018-03-17T13:28:51.944Z,4.19
2018-03-17T13:31:20.292Z,4.18
2018-03-17T13:33:48.636Z,4.28
2018-03-17T13:36:28.819Z,4.16
2018-03-17T13:38:57.157Z,4.09
2018-03-17T13:41:25.481Z,4.14
2018-03-17T13:43:53.810Z,4.18
2018-03-17T13:46:22.162Z,3.99
2018-03-17T13:48:50.506Z,4.14
2018-03-17T13:51:18.874Z,4.07
2018-03-17T13:53:47.227Z,3.99
2018-03-17T13:56:15.544Z,3.90
2018-03-17T13:58:43.924Z,3.80
2018-03-17T14:01:12.215Z,3.82
2018-03-17T14:03:40.590Z,3.91
2018-03-17T14:06:08.906Z,3.95
2018-03-17T14:08:37.271Z,4.03
2018-03-17T14:11:05.599Z,4.12
2018-03-17T14:13:34.007Z,3.91
2018-03-17T14:16:02.387Z,3.81
2018-03-17T14:18:30.730Z,3.90
2018-03-17T14:20:59.142Z,3.85
2018-03-17T14:23:27.476Z,3.70
2018-03-17T14:25:56.792Z,3.64
2018-03-17T14:28:25.113Z,3.69
2018-03-17T14:30:53.481Z,3.77
2018-03-17T14:33:21.987Z,3.68
2018-03-17T14:35:50.731Z,3.64
2018-03-17T14:38:19.150Z,3.67
2018-03-17T14:40:47.519Z,3.67
2018-03-17T14:43:15.883Z,3.69
2018-03-17T14:45:44.264Z,3.76
2018-03-17T14:48:12.627Z,3.59
2018-03-17T14:50:40.963Z,3.66
2018-03-17T14:53:09.404Z,3.70
2018-03-17T14:55:37.718Z,3.67
2018-03-17T14:58:06.111Z,3.58
2018-03-17T15:00:34.522Z,3.65
2018-03-17T15:03:02.847Z,3.62
2018-03-17T15:05:31.170Z,3.72
2018-03-17T15:07:59.554Z,3.68
2018-03-17T15:10:27.888Z,3.66
2018-03-17T15:12:56.304Z,3.64
2018-03-17T15:15:24.630Z,3.51
2018-03-17T15:17:52.958Z,3.58
2018-03-17T15:20:21.296Z,3.59
2018-03-17T15:22:49.720Z,3.57
2018-03-17T15:25:18.167Z,3.63
2018-03-17T15:27:46.507Z,3.68
2018-03-17T15:30:14.855Z,3.64
2018-03-17T15:32:43.184Z,3.70
2018-03-17T15:35:11.539Z,3.50
2018-03-17T15:37:39.869Z,3.39
2018-03-17T15:40:08.212Z,3.41
2018-03-17T15:42:36.516Z,3.38
2018-03-17T15:45:05.755Z,3.50
2018-03-17T15:47:34.116Z,3.35
2018-03-17T15:50:02.492Z,3.41
2018-03-17T15:52:30.810Z,3.42
2018-03-17T15:54:59.166Z,3.45
2018-03-17T15:57:27.531Z,3.38
2018-03-17T15:59:55.919Z,3.37
2018-03-17T16:02:25.002Z,3.26
2018-03-17T16:04:53.342Z,3.14
2018-03-17T16:07:22.356Z,3.16
2018-03-17T16:09:50.754Z,3.18
2018-03-17T16:12:19.098Z,3.26
2018-03-17T16:14:47.416Z,3.19
2018-03-17T16:17:15.763Z,3.09
2018-03-17T16:19:44.187Z,3.10
2018-03-17T16:22:12.504Z,3.25
2018-03-17T16:24:40.863Z,3.19
2018-03-17T16:27:09.295Z,2.94
2018-03-17T16:29:37.625Z,2.83
2018-03-17T16:32:05.947Z,2.92
2018-03-17T16:34:34.271Z,2.90
2018-03-17T16:37:02.607Z,2.78
2018-03-17T16:39:30.936Z,2.82
2018-03-17T16:41:59.292Z,2.77
2018-03-17T16:44:27.637Z,2.66
2018-03-17T16:46:56.025Z,2.55
2018-03-17T16:49:24.350Z,2.62
2018-03-17T16:51:52.722Z,2.59
2018-03-17T16:54:21.015Z,2.61
2018-03-17T16:56:49.348Z,2.62
2018-03-17T16:59:17.692Z,2.65
2018-03-17T17:01:46.019Z,2.63
2018-03-17T17:04:14.327Z,2.71
2018-03-17T17:06:43.676Z,2.60
2018-03-17T17:09:12.041Z,2.46
2018-03-17T17:11:40.383Z,2.48
2018-03-17T17:14:08.694Z,2.68
2018-03-17T17:16:37.073Z,2.49
2018-03-17T17:19:05.385Z,2.55
2018-03-17T17:21:33.719Z,2.60
2018-03-17T17:24:02.058Z,2.62
2018-03-17T17:26:30.498Z,2.55
2018-03-17T17:28:58.872Z,2.59
2018-03-17T17:31:27.254Z,2.56
2018-03-17T17:33:55.576Z,2.55
2018-03-17T17:36:23.910Z,2.56
2018-03-17T17:38:52.277Z,2.58
2018-03-17T17:41:20.659Z,2.48
2018-03-17T17:43:49.052Z,2.58
2018-03-17T17:46:17.498Z,2.66
2018-03-17T17:48:45.879Z,2.63
2018-03-17T17:51:14.212Z,2.62
2018-03-17T17:53:42.547Z,2.65
2018-03-17T17:56:11.025Z,2.63
2018-03-17T17:58:39.398Z,2.59
2018-03-17T18:01:07.741Z,2.51
2018-03-17T18:03:36.160Z,2.48
2018-03-17T18:06:04.468Z,2.54
2018-03-17T18:08:32.810Z,2.49
2018-03-17T18:11:01.191Z,2.37
2018-03-17T18:13:29.567Z,2.38
2018-03-17T18:15:57.892Z,2.36
2018-03-17T18:18:26.334Z,2.29
2018-03-17T18:20:54.714Z,2.20
2018-03-17T18:23:23.091Z,2.12
2018-03-17T18:25:51.415Z,2.05
2018-03-17T18:28:19.843Z,2.09
2018-03-17T18:30:48.183Z,2.24
2018-03-17T18:33:16.528Z,2.05
2018-03-17T18:35:44.859Z,1.96
2018-03-17T18:38:13.205Z,1.92
2018-03-17T18:40:41.515Z,1.97
2018-03-17T18:43:09.906Z,1.97
2018-03-17T18:45:38.227Z,1.88
2018-03-17T18:48:06.596Z,1.89
2018-03-17T18:50:34.934Z,1.91
2018-03-17T18:53:03.280Z,1.92
2018-03-17T18:55:31.696Z,1.90
2018-03-17T18:58:00.028Z,1.80
2018-03-17T19:00:28.368Z,1.83
2018-03-17T19:02:56.687Z,1.77
2018-03-17T19:05:25.103Z,1.82
2018-03-17T19:07:53.512Z,1.83
2018-03-17T19:10:21.959Z,1.71
2018-03-17T19:12:50.335Z,1.72
2018-03-17T19:15:18.671Z,1.75
2018-03-17T19:17:47.066Z,1.80
2018-03-17T19:20:15.474Z,1.70
2018-03-17T19:22:43.805Z,1.72
2018-03-17T19:25:12.238Z,1.67
2018-03-17T19:27:40.562Z,1.71
2018-03-17T19:30:08.896Z,1.68
2018-03-17T19:32:37.246Z,1.48
2018-03-17T19:35:05.653Z,1.68
2018-03-17T19:37:34.020Z,1.71
2018-03-17T19:40:02.375Z,1.72
2018-03-17T19:42:30.703Z,1.75
2018-03-17T19:44:59.047Z,1.67
2018-03-17T19:47:27.371Z,1.68
2018-03-17T19:49:55.715Z,1.69
2018-03-17T19:52:24.071Z,1.74
2018-03-17T19:54:52.390Z,1.73
2018-03-17T19:57:20.707Z,1.73
2018-03-17T19:59:49.234Z,1.73
2018-03-17T20:02:17.564Z,1.47
2018-03-17T20:04:45.986Z,1.50
2018-03-17T20:07:14.340Z,1.48
2018-03-17T20:09:42.698Z,1.45
2018-03-17T20:12:11.034Z,1.33
2018-03-17T20:14:39.353Z,1.14
2018-03-17T20:17:07.684Z,1.20
2018-03-17T20:19:36.015Z,1.15
2018-03-17T20:22:04.354Z,1.24
2018-03-17T20:24:32.703Z,1.13
2018-03-17T20:27:01.048Z,1.03
2018-03-17T20:29:29.469Z,1.11
2018-03-17T20:31:57.885Z,1.01
2018-03-17T20:34:26.278Z,1.03
2018-03-17T20:36:54.635Z,0.82
2018-03-17T20:39:23.071Z,0.96
2018-03-17T20:41:51.450Z,0.97
2018-03-17T20:44:19.830Z,0.88
2018-03-17T20:46:48.156Z,1.02
2018-03-17T20:49:16.491Z,1.02
2018-03-17T20:51:44.837Z,0.97
2018-03-17T20:54:13.251Z,1.00
2018-03-17T20:56:41.601Z,0.93
2018-03-17T20:59:10.009Z,0.93
2018-03-17T21:01:38.343Z,0.80
2018-03-17T21:04:06.782Z,0.82
2018-03-17T21:06:35.122Z,0.68
2018-03-17T21:09:03.486Z,0.82
2018-03-17T21:11:31.794Z,0.87
2018-03-17T21:14:00.118Z,0.78
2018-03-17T21:16:28.538Z,0.69
2018-03-17T21:18:56.884Z,0.65
2018-03-17T21:21:25.227Z,0.50
2018-03-17T21:23:53.575Z,0.58
2018-03-17T21:26:21.897Z,0.75
2018-03-17T21:28:50.223Z,0.46
2018-03-17T21:31:18.566Z,0.58
2018-03-17T21:33:47.138Z,0.36
2018-03-17T21:36:15.459Z,0.48
2018-03-17T21:38:43.797Z,0.54
2018-03-17T21:41:12.111Z,0.65
2018-03-17T21:43:40.443Z,0.74
2018-03-17T21:46:08.847Z,0.70
2018-03-17T21:48:37.166Z,0.57
2018-03-17T21:51:05.504Z,0.49
2018-03-17T21:53:33.914Z,0.42
2018-03-17T21:56:02.282Z,0.25
2018-03-17T21:58:30.640Z,0.31
2018-03-17T22:00:58.984Z,0.52
2018-03-17T22:03:27.338Z,0.44
2018-03-17T22:05:55.673Z,0.49
2018-03-17T22:08:23.995Z,0.46
2018-03-17T22:10:52.338Z,0.45
2018-03-17T22:13:20.651Z,0.14
2018-03-17T22:15:49.009Z,0.26
2018-03-17T22:18:17.351Z,0.26
2018-03-17T22:20:45.670Z,0.10
2018-03-17T22:23:14.031Z,0.19
2018-03-17T22:25:42.414Z,0.16
2018-03-17T22:28:10.758Z,0.06
2018-03-17T22:30:39.074Z,0.01
2018-03-17T22:33:07.450Z,0.10
2018-03-17T22:35:35.776Z,0.16
2018-03-17T22:38:05.117Z,0.05
2018-03-17T22:40:33.430Z,0.18
2018-03-17T22:43:01.784Z,0.19
2018-03-17T22:45:30.163Z,0.15
2018-03-17T22:47:58.572Z,0.12
2018-03-17T22:50:26.895Z,0.11
2018-03-17T22:52:55.248Z,-0.09
2018-03-17T22:55:23.567Z,0.13
2018-03-17T22:57:51.947Z,0.17
2018-03-17T23:00:20.286Z,0.12
2018-03-17T23:02:48.623Z,-0.10
2018-03-17T23:05:16.954Z,0.08
2018-03-17T23:07:45.285Z,0.13
2018-03-17T23:10:14.804Z,0.12
2018-03-17T23:12:43.138Z,0.08
2018-03-17T23:15:11.457Z,0.15
2018-03-17T23:17:39.789Z,0.05
2018-03-17T23:20:08.103Z,0.06
2018-03-17T23:22:36.438Z,0.06
2018-03-17T23:25:04.831Z,0.11
2018-03-17T23:27:33.156Z,0.02
2018-03-17T23:30:01.551Z,0.03
2018-03-17T23:32:29.878Z,0.06
2018-03-17T23:34:58.259Z,-0.01
2018-03-17T23:37:26.585Z,0.03
2018-03-17T23:39:54.931Z,0.11
2018-03-17T23:42:23.275Z,-0.06
2018-03-17T23:44:51.638Z,-0.01
2018-03-17T23:47:19.970Z,-0.17
2018-03-17T23:49:48.318Z,-0.05
2018-03-17T23:52:16.650Z,-0.06
2018-03-17T23:54:44.977Z,-0.07
2018-03-17T23:57:13.322Z,0.10
2018-03-17T23:59:41.658Z,0.07
